Time;durP1;ratioP1;P1;durP2;ratioP2;P2;SDS_P1;SDS_P2;PMS_P1;PMS_P2;Temp;Humidity;BMP_temperature;BMP_pressure;BME280_temperature;BME280_humidity;BME280_pressure;Samples;Min_cycle;Max_cycle;Signal;HPM_P1;HPM_P2
2023/11/03 00:01:13;;;;;;;0.50;0.50;;;;;;;;;;4995265;28;20074;-84
2023/11/03 00:03:39;;;;;;;0.60;0.60;;;;;;;;;;4971913;28;20043;-80
2023/11/03 00:06:06;;;;;;;0.60;0.60;;;;;;;;;;4968757;28;20045;-84
2023/11/03 00:08:33;;;;;;;0.55;0.55;;;;;;;;;;4978891;28;20043;-78
2023/11/03 00:11:04;;;;;;;0.60;0.60;;;;;;;;;;4987607;28;20079;-80
2023/11/03 00:13:31;;;;;;;0.50;0.50;;;;;;;;;;4998711;28;20044;-78
2023/11/03 00:15:57;;;;;;;0.43;0.43;;;;;;;;;;5007058;28;20059;-78
2023/11/03 00:18:23;;;;;;;0.50;0.50;;;;;;;;;;4959338;28;20112;-80
2023/11/03 00:20:49;;;;;;;0.43;0.43;;;;;;;;;;4980753;28;20096;-82
2023/11/03 00:23:16;;;;;;;0.50;0.50;;;;;;;;;;4980132;28;20046;-81
2023/11/03 00:25:42;;;;;;;0.40;0.40;;;;;;;;;;4978578;28;20043;-79
2023/11/03 00:28:08;;;;;;;0.65;0.65;;;;;;;;;;4986005;28;20065;-78
2023/11/03 00:30:35;;;;;;;0.50;0.50;;;;;;;;;;4976630;28;20041;-82
2023/11/03 00:33:01;;;;;;;0.50;0.50;;;;;;;;;;4984191;28;20055;-82
2023/11/03 00:35:28;;;;;;;0.60;0.60;;;;;;;;;;4977904;28;20073;-80
2023/11/03 00:37:56;;;;;;;0.50;0.50;;;;;;;;;;5036274;28;20053;-79
2023/11/03 00:40:22;;;;;;;0.52;0.52;;;;;;;;;;4952956;28;20051;-79
2023/11/03 00:42:48;;;;;;;0.45;0.45;;;;;;;;;;4980291;28;20051;-79
2023/11/03 00:45:14;;;;;;;0.50;0.50;;;;;;;;;;4969225;28;20070;-80
2023/11/03 00:47:41;;;;;;;0.52;0.52;;;;;;;;;;4975278;28;20122;-80
2023/11/03 00:50:08;;;;;;;0.60;0.60;;;;;;;;;;5005841;28;20444;-79
2023/11/03 00:52:34;;;;;;;0.38;0.38;;;;;;;;;;5029595;28;20033;-79
2023/11/03 00:55:00;;;;;;;;;;;;;;;;;;4970778;28;20484;-80
2023/11/03 00:57:26;;;;;;;0.57;0.57;;;;;;;;;;4971482;28;19961;-79
2023/11/03 00:59:52;;;;;;;0.55;0.55;;;;;;;;;;4977865;28;20080;-81
2023/11/03 01:02:18;;;;;;;0.50;0.50;;;;;;;;;;4971276;28;20051;-80
2023/11/03 01:04:45;;;;;;;;;;;;;;;;;;4984013;28;20035;-78
2023/11/03 01:07:11;;;;;;;0.55;0.55;;;;;;;;;;5009228;28;20003;-78
2023/11/03 01:09:38;;;;;;;0.50;0.50;;;;;;;;;;4974288;28;20042;-79
2023/11/03 01:12:04;;;;;;;0.50;0.50;;;;;;;;;;4971451;28;20124;-78
2023/11/03 01:14:32;;;;;;;;;;;;;;;;;;4982837;28;20046;-79
2023/11/03 01:16:58;;;;;;;0.60;0.60;;;;;;;;;;4973931;28;19922;-77
2023/11/03 01:19:25;;;;;;;0.30;0.30;;;;;;;;;;4995811;28;20048;-80
2023/11/03 01:21:51;;;;;;;0.50;0.50;;;;;;;;;;4989791;28;20054;-80
2023/11/03 01:24:17;;;;;;;0.50;0.50;;;;;;;;;;4983349;28;20050;-80
2023/11/03 01:26:43;;;;;;;1.13;1.13;;;;;;;;;;4966137;28;20069;-79
2023/11/03 01:29:10;;;;;;;0.40;0.40;;;;;;;;;;4983094;28;20039;-79
2023/11/03 01:31:37;;;;;;;;;;;;;;;;;;4982558;28;20050;-83
2023/11/03 01:34:05;;;;;;;0.40;0.40;;;;;;;;;;4969442;28;19922;-80
2023/11/03 01:36:31;;;;;;;0.40;0.40;;;;;;;;;;5005788;28;20057;-79
2023/11/03 01:38:58;;;;;;;0.50;0.50;;;;;;;;;;4978910;28;20070;-80
2023/11/03 01:41:24;;;;;;;0.70;0.70;;;;;;;;;;4976285;28;20189;-78
2023/11/03 01:44:06;;;;;;;0.30;0.30;;;;;;;;;;4981916;28;20118;-80
2023/11/03 01:46:37;;;;;;;0.40;0.40;;;;;;;;;;4969852;28;20051;-80
2023/11/03 01:49:05;;;;;;;0.40;0.40;;;;;;;;;;4979074;28;20054;-79
2023/11/03 01:51:31;;;;;;;0.77;0.77;;;;;;;;;;4989203;28;20055;-80
2023/11/03 01:53:57;;;;;;;0.40;0.40;;;;;;;;;;4976185;28;20501;-77
2023/11/03 01:56:23;;;;;;;0.50;0.50;;;;;;;;;;5002341;28;20511;-81
2023/11/03 01:58:50;;;;;;;0.60;0.60;;;;;;;;;;4971155;28;20058;-80
2023/11/03 02:01:16;;;;;;;0.40;0.40;;;;;;;;;;4968659;28;20039;-78
2023/11/03 02:03:44;;;;;;;0.40;0.40;;;;;;;;;;4980485;28;20392;-81
2023/11/03 02:06:10;;;;;;;0.52;0.52;;;;;;;;;;4978723;28;20120;-81
2023/11/03 02:08:36;;;;;;;0.38;0.38;;;;;;;;;;4971075;28;20043;-80
2023/11/03 02:11:02;;;;;;;0.80;0.60;;;;;;;;;;4979415;28;20180;-80
2023/11/03 02:13:28;;;;;;;;;;;;;;;;;;4978488;28;20099;-79
2023/11/03 02:15:54;;;;;;;0.47;0.47;;;;;;;;;;4969227;28;20483;-81
2023/11/03 02:18:20;;;;;;;2.65;0.75;;;;;;;;;;4990854;28;20044;-81
2023/11/03 02:20:46;;;;;;;0.40;0.40;;;;;;;;;;4973150;28;20039;-78
2023/11/03 02:23:12;;;;;;;0.45;0.45;;;;;;;;;;4977674;28;20355;-77
2023/11/03 02:25:38;;;;;;;0.40;0.40;;;;;;;;;;5006201;28;20145;-78
2023/11/03 02:28:06;;;;;;;0.40;0.40;;;;;;;;;;4972864;28;20039;-79
2023/11/03 02:30:32;;;;;;;0.40;0.40;;;;;;;;;;5008806;28;20059;-79
2023/11/03 02:32:58;;;;;;;0.50;0.50;;;;;;;;;;4969115;28;20046;-80
2023/11/03 02:35:24;;;;;;;0.40;0.40;;;;;;;;;;4969859;28;20051;-79
2023/11/03 02:37:50;;;;;;;0.40;0.40;;;;;;;;;;4955748;28;20046;-81
2023/11/03 02:40:16;;;;;;;0.52;0.52;;;;;;;;;;4975497;28;20046;-82
2023/11/03 02:42:43;;;;;;;0.52;0.52;;;;;;;;;;4974303;28;20045;-80
2023/11/03 02:45:12;;;;;;;0.30;0.30;;;;;;;;;;4959610;28;20047;-82
2023/11/03 02:47:38;;;;;;;0.40;0.40;;;;;;;;;;4979668;28;20043;-82
2023/11/03 02:50:04;;;;;;;0.35;0.35;;;;;;;;;;5002484;28;20042;-82
2023/11/03 02:52:30;;;;;;;0.40;0.40;;;;;;;;;;4975546;28;20058;-80
2023/11/03 02:54:56;;;;;;;0.60;0.60;;;;;;;;;;4991360;28;20743;-82
2023/11/03 02:57:23;;;;;;;0.38;0.38;;;;;;;;;;4974531;28;20138;-81
2023/11/03 02:59:49;;;;;;;0.32;0.32;;;;;;;;;;4979666;28;20433;-81
2023/11/03 03:02:16;;;;;;;0.50;0.50;;;;;;;;;;4977173;28;20048;-81
2023/11/03 03:04:42;;;;;;;0.60;0.60;;;;;;;;;;4971350;28;20100;-83
2023/11/03 03:07:08;;;;;;;0.57;0.57;;;;;;;;;;4997309;28;20150;-81
2023/11/03 03:09:34;;;;;;;0.50;0.50;;;;;;;;;;4970237;28;20085;-83
2023/11/03 03:12:00;;;;;;;0.40;0.40;;;;;;;;;;4972611;28;20129;-82
2023/11/03 03:14:26;;;;;;;0.43;0.43;;;;;;;;;;4953065;28;20050;-82
2023/11/03 03:16:53;;;;;;;0.50;0.50;;;;;;;;;;4953345;28;20046;-83
2023/11/03 03:19:18;;;;;;;;;;;;;;;;;;4946692;28;20357;-82
2023/11/03 03:21:45;;;;;;;0.45;0.45;;;;;;;;;;4980050;28;20335;-82
2023/11/03 03:24:11;;;;;;;0.50;0.50;;;;;;;;;;4985579;28;20804;-85
2023/11/03 03:26:37;;;;;;;0.45;0.45;;;;;;;;;;4976857;28;20039;-82
2023/11/03 03:29:03;;;;;;;0.75;0.75;;;;;;;;;;4972219;28;20055;-83
2023/11/03 03:31:30;;;;;;;0.50;0.50;;;;;;;;;;4953238;28;20043;-82
2023/11/03 03:33:56;;;;;;;0.52;0.52;;;;;;;;;;4973803;28;20059;-82
2023/11/03 03:36:22;;;;;;;0.40;0.40;;;;;;;;;;4972593;28;20042;-84
2023/11/03 03:38:48;;;;;;;;;;;;;;;;;;4976396;28;20048;-83
2023/11/03 03:41:15;;;;;;;0.50;0.50;;;;;;;;;;5011885;28;19928;-82
2023/11/03 03:43:43;;;;;;;0.40;0.40;;;;;;;;;;5003317;28;20052;-85
2023/11/03 03:46:09;;;;;;;0.35;0.35;;;;;;;;;;4995075;28;20043;-84
2023/11/03 03:48:36;;;;;;;0.50;0.50;;;;;;;;;;4989304;28;20096;-84
2023/11/03 03:51:03;;;;;;;0.60;0.60;;;;;;;;;;5054311;28;20069;-82
2023/11/03 03:53:32;;;;;;;0.73;0.73;;;;;;;;;;5049569;28;20513;-81
2023/11/03 03:55:59;;;;;;;0.60;0.60;;;8.00;99.90;;;;;;4988331;28;20389;-84
2023/11/03 03:58:24;;;;;;;0.60;0.60;;;8.10;99.90;;;;;;5007666;28;20400;-87
2023/11/03 04:00:51;;;;;;;0.50;0.50;;;8.10;99.90;;;;;;4968450;28;20065;-85
2023/11/03 04:03:18;;;;;;;0.40;0.40;;;8.20;99.90;;;;;;4960965;28;20043;-85
2023/11/03 04:05:43;;;;;;;0.40;0.40;;;8.20;99.90;;;;;;4953590;28;20050;-82
2023/11/03 04:08:09;;;;;;;0.73;0.73;;;8.30;99.90;;;;;;4966647;28;20042;-82
2023/11/03 04:10:36;;;;;;;0.50;0.50;;;8.30;99.90;;;;;;4967060;28;20097;-83
2023/11/03 04:13:01;;;;;;;0.85;0.85;;;8.30;99.90;;;;;;5026564;28;20044;-81
2023/11/03 04:15:27;;;;;;;0.57;0.57;;;8.40;99.90;;;;;;4974851;28;20059;-79
2023/11/03 04:17:53;;;;;;;0.60;0.60;;;8.30;99.90;;;;;;4976622;28;20445;-82
2023/11/03 04:20:19;;;;;;;0.50;0.50;;;8.40;99.90;;;;;;5004814;28;20044;-82
2023/11/03 04:22:44;;;;;;;0.50;0.50;;;8.40;99.90;;;;;;5033636;28;20397;-81
2023/11/03 04:25:10;;;;;;;0.60;0.60;;;8.40;99.90;;;;;;4964122;28;20134;-81
2023/11/03 04:27:36;;;;;;;0.50;0.50;;;8.40;99.90;;;;;;4954726;28;20041;-79
2023/11/03 04:30:01;;;;;;;0.50;0.50;;;8.40;99.90;;;;;;4979501;28;20043;-82
2023/11/03 04:32:27;;;;;;;1.10;1.10;;;8.40;99.90;;;;;;4993725;28;20571;-81
2023/11/03 04:34:53;;;;;;;0.60;0.60;;;8.30;99.90;;;;;;4970955;28;20388;-82
2023/11/03 04:37:21;;;;;;;0.47;0.47;;;8.30;99.90;;;;;;4987436;28;20400;-85
2023/11/03 04:39:47;;;;;;;0.45;0.45;;;8.30;99.90;;;;;;5002876;28;20051;-85
2023/11/03 04:42:14;;;;;;;1.02;0.47;;;8.30;99.90;;;;;;4973216;28;20543;-85
2023/11/03 04:44:39;;;;;;;0.50;0.50;;;8.30;99.90;;;;;;5039090;28;20038;-87
2023/11/03 04:47:05;;;;;;;0.65;0.65;;;8.30;99.90;;;;;;4979234;28;20058;-85
2023/11/03 04:49:34;;;;;;;0.50;0.50;;;8.30;99.90;;;;;;4982558;28;20041;-88
2023/11/03 04:52:01;;;;;;;;;;;8.30;99.90;;;;;;4952254;28;20043;-85
2023/11/03 04:54:30;;;;;;;0.50;0.50;;;8.30;99.90;;;;;;4988316;28;19918;-88
2023/11/03 04:56:56;;;;;;;0.75;0.75;;;8.20;99.90;;;;;;5020726;28;20081;-87
2023/11/03 04:59:25;;;;;;;0.60;0.60;;;8.30;99.90;;;;;;5005038;28;20049;-86
2023/11/03 05:01:50;;;;;;;0.40;0.40;;;8.30;99.90;;;;;;5022704;28;20046;-87
2023/11/03 05:04:18;;;;;;;0.40;0.40;;;8.20;99.90;;;;;;5041221;28;20039;-87
2023/11/03 05:06:43;;;;;;;0.20;0.20;;;8.30;99.90;;;;;;4959526;28;20568;-86
2023/11/03 05:09:10;;;;;;;0.40;0.40;;;8.30;99.90;;;;;;4998122;28;20123;-87
2023/11/03 05:11:37;;;;;;;0.68;0.68;;;8.30;99.90;;;;;;4968002;28;20047;-87
2023/11/03 05:14:05;;;;;;;0.50;0.50;;;8.30;99.90;;;;;;4979980;28;20097;-89
2023/11/03 05:16:33;;;;;;;0.30;0.30;;;8.30;99.90;;;;;;4981100;28;20034;-88
2023/11/03 05:19:01;;;;;;;0.32;0.32;;;8.30;99.90;;;;;;4996902;28;20150;-88
2023/11/03 05:21:27;;;;;;;0.60;0.60;;;8.30;99.90;;;;;;4955050;28;20038;-87
2023/11/03 05:23:52;;;;;;;0.30;0.30;;;8.30;99.90;;;;;;4961362;28;20102;-87
2023/11/03 05:26:19;;;;;;;0.35;0.35;;;8.40;99.90;;;;;;4964382;28;20514;-87
2023/11/03 05:28:48;;;;;;;0.43;0.43;;;8.30;99.90;;;;;;4957698;28;20071;-87
2023/11/03 05:31:13;;;;;;;0.40;0.40;;;8.30;99.90;;;;;;4965287;28;20042;-86
2023/11/03 05:33:48;;;;;;;0.40;0.40;;;8.30;99.90;;;;;;4974658;28;20053;-86
2023/11/03 05:36:15;;;;;;;0.50;0.50;;;8.30;99.90;;;;;;4960719;28;20129;-87
2023/11/03 05:38:42;;;;;;;0.50;0.50;;;8.30;99.90;;;;;;4952894;28;20095;-85
2023/11/03 05:41:11;;;;;;;0.47;0.47;;;8.50;99.90;;;;;;4979869;28;20055;-85
2023/11/03 05:43:37;;;;;;;0.40;0.40;;;8.30;99.90;;;;;;4996146;28;20048;-87
2023/11/03 05:46:03;;;;;;;0.57;0.57;;;8.30;99.90;;;;;;4991927;28;20051;-85
2023/11/03 05:48:29;;;;;;;0.45;0.45;;;8.30;99.90;;;;;;4958257;28;20157;-86
2023/11/03 05:50:56;;;;;;;;;;;8.30;99.90;;;;;;4982247;28;20397;-85
2023/11/03 05:53:22;;;;;;;0.40;0.40;;;8.30;99.90;;;;;;4972628;28;19919;-85
2023/11/03 05:55:47;;;;;;;;;;;8.30;99.90;;;;;;4998249;28;20509;-85
2023/11/03 05:58:13;;;;;;;0.50;0.50;;;8.30;99.90;;;;;;4983510;28;19937;-85
2023/11/03 06:00:39;;;;;;;0.50;0.50;;;8.30;99.90;;;;;;5039732;28;20054;-87
2023/11/03 06:03:05;;;;;;;0.60;0.60;;;8.30;99.90;;;;;;4951815;28;20043;-85
2023/11/03 06:05:31;;;;;;;2.17;1.38;;;8.30;99.90;;;;;;5034076;28;20082;-86
2023/11/03 06:07:57;;;;;;;0.50;0.50;;;8.30;99.90;;;;;;5014934;28;20090;-88
2023/11/03 06:10:22;;;;;;;0.50;0.50;;;8.40;99.90;;;;;;4974858;28;20043;-87
2023/11/03 06:12:48;;;;;;;0.52;0.52;;;8.40;99.90;;;;;;4958897;28;20035;-87
2023/11/03 06:15:14;;;;;;;0.50;0.50;;;8.30;99.90;;;;;;4963320;28;20118;-88
2023/11/03 06:17:39;;;;;;;0.40;0.40;;;8.30;99.90;;;;;;4992623;28;20420;-84
2023/11/03 06:20:08;;;;;;;0.50;0.50;;;8.40;99.90;;;;;;4974583;28;20043;-85
2023/11/03 06:22:33;;;;;;;0.45;0.45;;;8.40;99.90;;;;;;4973192;28;20043;-83
2023/11/03 06:24:59;;;;;;;0.40;0.40;;;8.30;99.90;;;;;;4988567;28;20035;-85
2023/11/03 06:27:25;;;;;;;0.65;0.65;;;8.40;99.90;;;;;;4982838;28;20116;-85
2023/11/03 06:29:51;;;;;;;0.50;0.50;;;8.40;99.90;;;;;;4977534;28;20069;-86
2023/11/03 06:32:16;;;;;;;0.50;0.50;;;8.30;99.90;;;;;;4956292;28;20043;-83
2023/11/03 06:34:42;;;;;;;0.50;0.50;;;8.40;99.90;;;;;;4973120;28;20388;-84
2023/11/03 06:37:08;;;;;;;0.50;0.50;;;8.40;99.90;;;;;;4957941;28;20152;-83
2023/11/03 06:39:34;;;;;;;0.32;0.32;;;8.40;99.90;;;;;;4966349;28;20078;-84
2023/11/03 06:42:00;;;;;;;0.50;0.50;;;8.40;99.90;;;;;;4974400;28;20134;-83
2023/11/03 06:44:25;;;;;;;;;;;8.40;99.90;;;;;;4975445;28;20564;-83
2023/11/03 06:46:51;;;;;;;0.40;0.40;;;8.50;99.90;;;;;;4983468;28;19926;-84
2023/11/03 06:49:17;;;;;;;0.45;0.45;;;8.40;99.90;;;;;;4959310;28;20047;-84
2023/11/03 06:51:46;;;;;;;0.35;0.35;;;8.50;99.90;;;;;;4956888;28;20075;-83
2023/11/03 06:54:11;;;;;;;0.50;0.50;;;8.50;99.90;;;;;;4977616;28;20058;-86
2023/11/03 06:56:37;;;;;;;0.43;0.43;;;8.50;99.90;;;;;;4999931;28;20431;-83
2023/11/03 06:59:06;;;;;;;0.50;0.50;;;8.50;99.90;;;;;;4974203;28;20069;-85
2023/11/03 07:01:33;;;;;;;0.40;0.40;;;8.50;99.90;;;;;;4980222;28;20116;-83
2023/11/03 07:04:00;;;;;;;0.50;0.50;;;8.50;99.90;;;;;;4994820;28;20097;-84
2023/11/03 07:06:25;;;;;;;0.57;0.57;;;8.50;99.90;;;;;;4975186;28;20420;-83
2023/11/03 07:08:51;;;;;;;0.50;0.50;;;8.60;99.90;;;;;;4978243;28;20045;-85
2023/11/03 07:11:17;;;;;;;0.50;0.50;;;8.60;99.90;;;;;;4983241;28;20046;-84
2023/11/03 07:13:43;;;;;;;0.50;0.50;;;8.60;99.90;;;;;;4963718;28;20481;-86
2023/11/03 07:16:12;;;;;;;;;;;8.60;99.90;;;;;;4946152;28;20047;-86
2023/11/03 07:18:44;;;;;;;0.57;0.57;;;8.60;99.90;;;;;;4984667;28;19944;-84
2023/11/03 07:21:12;;;;;;;0.40;0.40;;;8.60;99.90;;;;;;4976114;28;20469;-86
2023/11/03 07:23:39;;;;;;;0.40;0.40;;;8.60;99.90;;;;;;4978237;28;20058;-82
2023/11/03 07:26:05;;;;;;;0.45;0.45;;;8.70;99.90;;;;;;5003803;28;20046;-86
2023/11/03 07:28:31;;;;;;;0.40;0.40;;;8.70;99.90;;;;;;4978839;28;20051;-86
2023/11/03 07:30:58;;;;;;;0.43;0.43;;;8.70;99.90;;;;;;4963661;28;20114;-83
2023/11/03 07:33:23;;;;;;;0.38;0.38;;;8.70;99.90;;;;;;5023708;28;20044;-82
2023/11/03 07:35:49;;;;;;;1.77;1.67;;;8.70;99.90;;;;;;4959411;28;20100;-87
2023/11/03 07:38:15;;;;;;;0.60;0.60;;;8.70;99.90;;;;;;4950874;28;20039;-87
2023/11/03 07:40:41;;;;;;;0.32;0.32;;;8.80;99.90;;;;;;4954108;28;20054;-86
2023/11/03 07:43:06;;;;;;;0.30;0.30;;;8.80;99.90;;;;;;4991091;28;20047;-88
2023/11/03 07:45:33;;;;;;;0.40;0.40;;;8.80;99.90;;;;;;5048372;28;20373;-90
2023/11/03 07:47:59;;;;;;;0.47;0.47;;;8.80;99.90;;;;;;4961898;28;20042;-89
2023/11/03 07:50:27;;;;;;;0.50;0.50;;;8.80;99.90;;;;;;5025239;28;20032;-88
2023/11/03 07:52:52;;;;;;;0.70;0.70;;;8.80;99.90;;;;;;4975271;28;20050;-87
2023/11/03 07:55:20;;;;;;;0.50;0.50;;;8.70;99.90;;;;;;5027877;28;20042;-88
2023/11/03 07:57:48;;;;;;;0.60;0.60;;;8.70;99.90;;;;;;5026929;28;20050;-86
2023/11/03 08:00:15;;;;;;;0.50;0.50;;;8.80;99.90;;;;;;5000821;28;20129;-87
2023/11/03 08:02:41;;;;;;;0.40;0.40;;;8.70;99.90;;;;;;4983624;28;20050;-87
2023/11/03 08:05:09;;;;;;;0.57;0.57;;;8.80;99.90;;;;;;4982273;28;20047;-89
2023/11/03 08:07:35;;;;;;;0.50;0.50;;;8.80;99.90;;;;;;4972014;28;20060;-88
2023/11/03 08:10:03;;;;;;;0.40;0.40;;;8.80;99.90;;;;;;5008927;28;20468;-88
2023/11/03 08:12:31;;;;;;;0.30;0.30;;;8.80;99.90;;;;;;5010905;28;20039;-86
2023/11/03 08:15:01;;;;;;;0.40;0.40;;;8.80;99.90;;;;;;5042333;28;20078;-88
2023/11/03 08:17:27;;;;;;;0.60;0.60;;;8.80;99.90;;;;;;5012854;28;20050;-88
2023/11/03 08:19:54;;;;;;;1.70;0.52;;;8.80;99.90;;;;;;4987253;28;20046;-87
2023/11/03 08:22:20;;;;;;;;;;;8.80;99.90;;;;;;5038011;28;20053;-82
2023/11/03 08:24:45;;;;;;;0.30;0.30;;;8.80;99.90;;;;;;5003720;28;20009;-82
2023/11/03 08:27:12;;;;;;;0.38;0.38;;;8.80;99.90;;;;;;5031498;28;20036;-86
2023/11/03 08:29:38;;;;;;;0.50;0.50;;;8.80;99.90;;;;;;4986071;28;20053;-86
2023/11/03 08:32:05;;;;;;;;;;;8.90;99.90;;;;;;5024891;28;20096;-85
2023/11/03 08:34:31;;;;;;;0.40;0.40;;;8.80;99.90;;;;;;5011633;28;19968;-85
2023/11/03 08:36:57;;;;;;;0.50;0.50;;;8.80;99.90;;;;;;4993538;28;20046;-83
2023/11/03 08:39:22;;;;;;;0.47;0.47;;;8.90;99.90;;;;;;4981055;28;20032;-84
2023/11/03 08:41:48;;;;;;;0.30;0.30;;;8.80;99.90;;;;;;4987543;28;20187;-83
2023/11/03 08:44:14;;;;;;;0.50;0.50;;;8.80;99.90;;;;;;5019524;28;20071;-83
2023/11/03 08:46:47;;;;;;;1.95;1.48;;;8.90;99.90;;;;;;5014290;28;20040;-82
2023/11/03 08:49:13;;;;;;;0.40;0.40;;;8.90;99.90;;;;;;5037297;28;20043;-84
2023/11/03 08:51:38;;;;;;;0.40;0.40;;;9.10;99.90;;;;;;5002744;28;20043;-84
2023/11/03 08:54:05;;;;;;;0.68;0.68;;;9.00;99.90;;;;;;5016718;28;20141;-83
2023/11/03 08:56:31;;;;;;;0.40;0.40;;;9.40;99.90;;;;;;4952685;28;20172;-82
2023/11/03 08:59:00;;;;;;;0.50;0.50;;;9.10;99.90;;;;;;4976119;28;20173;-83
2023/11/03 09:01:26;;;;;;;0.50;0.50;;;9.10;99.90;;;;;;5013650;28;20043;-84
2023/11/03 09:03:52;;;;;;;0.47;0.47;;;9.10;99.90;;;;;;5001266;28;20045;-85
2023/11/03 09:06:18;;;;;;;0.40;0.40;;;9.20;99.90;;;;;;4982236;28;20046;-82
2023/11/03 09:08:44;;;;;;;;;;;9.20;99.90;;;;;;5027167;28;20075;-82
2023/11/03 09:11:10;;;;;;;0.30;0.30;;;9.20;99.90;;;;;;5017733;28;19961;-83
2023/11/03 09:13:52;;;;;;;0.40;0.40;;;9.20;99.90;;;;;;4971308;28;20047;-84
2023/11/03 09:16:19;;;;;;;0.32;0.32;;;9.30;99.90;;;;;;5000725;28;20052;-84
2023/11/03 09:18:52;;;;;;;1.45;1.35;;;9.40;99.90;;;;;;5033596;28;20064;-85
2023/11/03 09:21:18;;;;;;;0.43;0.43;;;9.40;99.90;;;;;;5039097;28;20054;-83
2023/11/03 09:23:44;;;;;;;0.40;0.40;;;9.40;99.90;;;;;;4984381;28;20048;-85
2023/11/03 09:26:10;;;;;;;0.63;0.63;;;9.30;99.90;;;;;;4995822;28;20051;-85
2023/11/03 09:28:38;;;;;;;3.10;2.03;;;9.30;99.90;;;;;;4990036;28;20036;-87
2023/11/03 09:31:06;;;;;;;0.35;0.35;;;9.40;99.90;;;;;;4998348;28;20543;-85
2023/11/03 09:33:31;;;;;;;0.50;0.50;;;9.40;99.90;;;;;;4985615;28;20035;-86
2023/11/03 09:35:58;;;;;;;0.40;0.40;;;9.40;99.90;;;;;;5009857;28;20455;-86
2023/11/03 09:38:24;;;;;;;0.88;0.88;;;9.40;99.90;;;;;;5014850;28;20092;-86
2023/11/03 09:40:50;;;;;;;0.30;0.30;;;9.40;99.90;;;;;;4984975;28;20090;-87
2023/11/03 09:43:17;;;;;;;1.50;0.85;;;9.40;99.90;;;;;;5035053;28;20064;-87
2023/11/03 09:45:43;;;;;;;0.70;0.65;;;9.50;99.90;;;;;;5012176;28;20075;-86
2023/11/03 09:48:08;;;;;;;0.30;0.30;;;9.50;99.90;;;;;;4982617;28;20038;-84
2023/11/03 09:50:38;;;;;;;0.47;0.47;;;9.50;99.90;;;;;;5024351;28;20072;-87
2023/11/03 09:53:15;;;;;;;0.47;0.47;;;9.50;99.90;;;;;;5068421;28;20101;-85
2023/11/03 09:55:42;;;;;;;0.65;0.57;;;9.50;99.90;;;;;;5020136;28;20041;-83
2023/11/03 09:58:09;;;;;;;0.63;0.63;;;9.50;99.90;;;;;;4968270;28;21461;-87
2023/11/03 10:00:35;;;;;;;0.40;0.40;;;9.50;99.90;;;;;;4953991;28;20043;-82
2023/11/03 10:03:01;;;;;;;5.35;1.05;;;9.60;99.90;;;;;;5022017;28;20107;-85
2023/11/03 10:05:30;;;;;;;0.73;0.73;;;9.60;99.90;;;;;;4978250;28;20047;-86
2023/11/03 10:08:07;;;;;;;0.40;0.40;;;9.70;99.90;;;;;;5036411;28;20086;-85
2023/11/03 10:10:34;;;;;;;0.60;0.60;;;9.80;99.90;;;;;;4984216;28;20126;-83
2023/11/03 10:13:05;;;;;;;0.40;0.40;;;9.90;99.90;;;;;;4960285;28;20384;-83
2023/11/03 10:15:32;;;;;;;0.30;0.30;;;10.00;99.90;;;;;;4993967;28;20099;-86
2023/11/03 10:17:58;;;;;;;0.60;0.60;;;10.10;99.90;;;;;;5043729;28;20442;-83
2023/11/03 10:20:25;;;;;;;0.30;0.30;;;10.20;99.90;;;;;;4977673;28;20042;-83
2023/11/03 10:22:51;;;;;;;;;;;10.30;99.90;;;;;;4979822;28;20483;-84
2023/11/03 10:25:21;;;;;;;1.20;1.20;;;10.40;99.90;;;;;;4986903;28;19925;-85
2023/11/03 10:27:51;;;;;;;0.43;0.43;;;10.40;99.90;;;;;;4971104;28;20280;-85
2023/11/03 10:30:16;;;;;;;0.50;0.50;;;10.60;99.90;;;;;;4997494;28;20145;-84
2023/11/03 10:32:43;;;;;;;0.50;0.50;;;10.70;99.90;;;;;;4983906;28;20043;-85
2023/11/03 10:35:11;;;;;;;0.77;0.77;;;10.80;99.90;;;;;;4975752;28;20058;-86
2023/11/03 10:37:46;;;;;;;0.40;0.40;;;10.80;99.90;;;;;;5025074;28;20043;-83
2023/11/03 10:40:15;;;;;;;0.30;0.30;;;10.80;99.90;;;;;;4964707;28;20042;-82
2023/11/03 10:42:50;;;;;;;0.30;0.30;;;10.80;99.90;;;;;;4989312;28;20053;-82
2023/11/03 10:45:20;;;;;;;0.30;0.30;;;10.90;99.90;;;;;;4983719;28;20050;-83
2023/11/03 10:48:15;;;;;;;0.55;0.55;;;10.90;99.90;;;;;;4989045;28;20043;-82
2023/11/03 10:51:06;;;;;;;0.60;0.60;;;10.90;99.90;;;;;;4980811;28;20046;-86
2023/11/03 10:53:48;;;;;;;0.40;0.40;;;10.80;99.90;;;;;;5000352;28;20043;-82
2023/11/03 10:56:15;;;;;;;0.30;0.30;;;10.80;99.90;;;;;;4974675;28;20034;-83
2023/11/03 10:58:42;;;;;;;0.30;0.30;;;10.90;99.90;;;;;;4981605;28;20508;-84
2023/11/03 11:01:31;;;;;;;0.30;0.30;;;11.00;99.90;;;;;;5010523;28;20056;-82
2023/11/03 11:04:01;;;;;;;0.40;0.40;;;10.90;99.90;;;;;;4992309;28;20038;-84
2023/11/03 11:06:37;;;;;;;4.05;2.65;;;10.90;99.90;;;;;;4990161;28;20042;-82
2023/11/03 11:09:23;;;;;;;0.50;0.50;;;10.90;99.90;;;;;;5015619;28;20037;-81
2023/11/03 11:11:49;;;;;;;0.30;0.30;;;11.00;99.90;;;;;;4993029;28;20608;-80
2023/11/03 11:14:23;;;;;;;0.38;0.38;;;11.00;99.90;;;;;;5008058;28;20124;-81
2023/11/03 11:16:56;;;;;;;0.45;0.45;;;11.10;99.90;;;;;;4983234;28;20103;-82
2023/11/03 11:19:41;;;;;;;1.05;0.93;;;11.20;99.90;;;;;;4989393;28;20111;-83
2023/11/03 11:22:10;;;;;;;0.73;0.73;;;11.20;99.90;;;;;;5007912;28;20044;-84
2023/11/03 11:25:01;;;;;;;0.40;0.40;;;11.20;99.90;;;;;;4973638;28;20099;-81
2023/11/03 11:27:28;;;;;;;0.40;0.40;;;11.30;99.90;;;;;;4995429;28;20543;-84
2023/11/03 11:30:14;;;;;;;0.47;0.47;;;11.30;99.90;;;;;;4959746;28;20042;-84
2023/11/03 11:32:54;;;;;;;0.88;0.88;;;11.30;99.90;;;;;;5052530;28;20045;-82
2023/11/03 11:35:23;;;;;;;0.38;0.38;;;11.40;99.90;;;;;;4972931;28;20044;-81
2023/11/03 11:37:49;;;;;;;0.30;0.30;;;11.40;99.90;;;;;;4974219;28;20047;-81
2023/11/03 11:40:15;;;;;;;0.57;0.57;;;11.40;99.90;;;;;;4977210;28;20074;-83
2023/11/03 11:42:42;;;;;;;0.40;0.40;;;11.40;99.90;;;;;;4964760;28;20531;-83
2023/11/03 11:45:15;;;;;;;0.30;0.30;;;11.40;99.90;;;;;;4969238;28;20510;-83
2023/11/03 11:47:50;;;;;;;0.40;0.40;;;11.40;99.90;;;;;;4953229;28;20560;-81
2023/11/03 11:50:17;;;;;;;0.65;0.65;;;11.40;99.90;;;;;;4971550;28;20054;-83
2023/11/03 11:52:49;;;;;;;0.38;0.38;;;11.40;99.90;;;;;;4978765;28;20133;-83
2023/11/03 11:55:16;;;;;;;0.30;0.30;;;11.50;99.90;;;;;;4996087;28;20045;-83
2023/11/03 11:57:49;;;;;;;0.20;0.20;;;11.50;99.90;;;;;;4974796;28;20066;-84
2023/11/03 12:00:19;;;;;;;0.28;0.28;;;11.60;99.90;;;;;;4987890;28;20047;-85
2023/11/03 12:02:53;;;;;;;0.40;0.40;;;11.70;99.90;;;;;;4993528;28;20400;-85
2023/11/03 12:05:19;;;;;;;0.60;0.60;;;11.70;99.90;;;;;;4958091;28;20045;-83
2023/11/03 12:07:46;;;;;;;;;;;11.70;99.90;;;;;;4953942;28;20415;-84
2023/11/03 12:10:13;;;;;;;0.40;0.40;;;11.80;99.90;;;;;;5014131;28;20482;-82
2023/11/03 12:12:45;;;;;;;1.45;1.10;;;11.80;99.90;;;;;;5038235;28;20101;-83
2023/11/03 12:15:10;;;;;;;0.30;0.30;;;11.70;99.90;;;;;;5028450;28;20439;-80
2023/11/03 12:17:42;;;;;;;0.30;0.30;;;11.80;99.90;;;;;;5029780;28;20070;-81
2023/11/03 12:20:16;;;;;;;0.20;0.20;;;11.80;99.90;;;;;;5022438;28;20047;-81
2023/11/03 12:22:42;;;;;;;0.30;0.30;;;11.90;99.90;;;;;;5034373;28;20055;-83
2023/11/03 12:25:10;;;;;;;0.50;0.50;;;12.10;99.90;;;;;;5019251;28;20396;-83
2023/11/03 12:27:37;;;;;;;0.40;0.40;;;12.10;99.90;;;;;;5049145;28;20105;-81
2023/11/03 12:30:04;;;;;;;0.30;0.30;;;12.20;99.90;;;;;;5017784;28;20048;-82
2023/11/03 12:32:32;;;;;;;0.68;0.68;;;12.20;99.90;;;;;;4996251;28;20115;-82
2023/11/03 12:34:58;;;;;;;0.30;0.30;;;12.20;99.90;;;;;;5003196;28;20046;-80
2023/11/03 12:37:24;;;;;;;0.60;0.60;;;12.20;99.90;;;;;;4994636;28;20481;-83
2023/11/03 12:39:55;;;;;;;0.50;0.50;;;12.00;99.90;;;;;;4956598;28;20438;-83
2023/11/03 12:42:26;;;;;;;5.20;2.33;;;11.80;99.90;;;;;;5011780;28;20462;-83
2023/11/03 12:44:59;;;;;;;0.40;0.40;;;11.70;99.90;;;;;;4983928;28;20039;-83
2023/11/03 12:47:49;;;;;;;0.20;0.20;;;11.60;99.90;;;;;;4999578;28;20044;-81
2023/11/03 12:50:24;;;;;;;0.40;0.40;;;11.50;99.90;;;;;;5025813;28;20378;-80
2023/11/03 12:53:03;;;;;;;0.80;0.80;;;11.40;99.90;;;;;;5004137;28;20064;-78
2023/11/03 12:55:35;;;;;;;0.20;0.20;;;11.50;99.90;;;;;;4978915;28;20050;-80
2023/11/03 12:58:08;;;;;;;0.40;0.40;;;11.50;99.90;;;;;;4996526;28;20052;-81
2023/11/03 13:00:36;;;;;;;0.20;0.20;;;11.50;99.90;;;;;;5016730;28;20055;-84
2023/11/03 13:03:02;;;;;;;0.40;0.40;;;11.50;99.90;;;;;;5003972;28;20049;-79
2023/11/03 13:05:28;;;;;;;0.28;0.28;;;11.40;99.90;;;;;;5016128;28;20055;-79
2023/11/03 13:07:55;;;;;;;0.40;0.40;;;11.40;99.90;;;;;;5020414;28;20489;-81
2023/11/03 13:10:25;;;;;;;0.30;0.30;;;11.40;99.90;;;;;;5016490;28;20039;-78
2023/11/03 13:12:51;;;;;;;0.22;0.22;;;11.30;99.90;;;;;;5040775;28;20044;-79
2023/11/03 13:15:17;;;;;;;0.30;0.30;;;11.30;99.90;;;;;;5016776;28;20048;-80
2023/11/03 13:17:45;;;;;;;;;;;11.30;99.90;;;;;;4975496;28;20058;-80
2023/11/03 13:20:17;;;;;;;0.22;0.22;;;11.30;99.90;;;;;;4954906;28;20414;-81
2023/11/03 13:22:49;;;;;;;0.30;0.30;;;11.40;99.90;;;;;;4982073;28;20059;-82
2023/11/03 13:25:14;;;;;;;1.20;1.20;;;11.60;99.90;;;;;;4995692;28;20050;-82
2023/11/03 13:27:41;;;;;;;0.82;0.82;;;11.90;99.90;;;;;;4965682;28;20426;-80
2023/11/03 13:30:10;;;;;;;1.63;1.52;;;11.90;99.90;;;;;;4961222;28;20120;-80